Terminal Aerodrome Forecast
Issued by NWS

Home | Current Version | Previous Version | Text Only | Print | Product List | Glossary On
Versions: 1 2 3 4 5 6 7 8 9 10 11 12 13 14
000
FTAK31 PAJN 251700
TAFAKT
TAF
PAKT 251737Z 2518/2618 33011KT P6SM SCT100
     FM260400 34005KT P6SM SKC
     FM261200 VRB03KT P6SM BCFG SCT005
      AMD LTD TO CLD VIS AND WIND 2606/2615=

USA.gov is the U.S. government's official web portal to all federal, state and local government web resources and services.